Terminal Aerodrome Forecast
Issued by NWS

Home | Current Version | Previous Version | Text Only | Print | Product List | Glossary On
Versions: 1 2 3 4 5 6 7 8 9 10 11 12 13 14 15 16 17 18 19 20
000
FTUS43 KLSX 161139
TAFCPS
TAF
KCPS 161139Z 1612/1712 33014G21KT P6SM BKN022 OVC090
     FM161900 35010KT P6SM SCT100
     FM162300 36005KT P6SM SCT200
     FM171000 12004KT P6SM BKN200=

USA.gov is the U.S. government's official web portal to all federal, state and local government web resources and services.